sensor_id;sensor_type;location;lat;lon;timestamp;P1;durP1;ratioP1;P2;durP2;ratioP2
47513;SDS011;33951;51.988;5.910;2023-03-01T00:01:14;9.30;;;3.55;;
47513;SDS011;33951;51.988;5.910;2023-03-01T00:03:41;4.78;;;3.88;;
47513;SDS011;33951;51.988;5.910;2023-03-01T00:06:07;4.82;;;3.63;;
47513;SDS011;33951;51.988;5.910;2023-03-01T00:08:34;5.88;;;4.20;;
47513;SDS011;33951;51.988;5.910;2023-03-01T00:11:07;6.60;;;3.88;;
47513;SDS011;33951;51.988;5.910;2023-03-01T00:13:33;4.93;;;3.25;;
47513;SDS011;33951;51.988;5.910;2023-03-01T00:16:03;5.10;;;3.70;;
47513;SDS011;33951;51.988;5.910;2023-03-01T00:18:30;7.10;;;3.20;;
47513;SDS011;33951;51.988;5.910;2023-03-01T00:20:56;4.20;;;3.15;;
47513;SDS011;33951;51.988;5.910;2023-03-01T00:23:22;8.85;;;3.38;;
47513;SDS011;33951;51.988;5.910;2023-03-01T00:25:48;6.38;;;3.97;;
47513;SDS011;33951;51.988;5.910;2023-03-01T00:28:15;4.57;;;3.20;;
47513;SDS011;33951;51.988;5.910;2023-03-01T00:30:41;5.55;;;3.88;;
47513;SDS011;33951;51.988;5.910;2023-03-01T00:33:06;5.70;;;3.75;;
47513;SDS011;33951;51.988;5.910;2023-03-01T00:35:33;6.15;;;3.75;;
47513;SDS011;33951;51.988;5.910;2023-03-01T00:37:59;5.43;;;3.50;;
47513;SDS011;33951;51.988;5.910;2023-03-01T00:40:29;4.93;;;3.22;;
47513;SDS011;33951;51.988;5.910;2023-03-01T00:42:56;9.05;;;3.30;;
47513;SDS011;33951;51.988;5.910;2023-03-01T00:45:24;5.55;;;3.75;;
47513;SDS011;33951;51.988;5.910;2023-03-01T00:47:50;5.25;;;3.25;;
47513;SDS011;33951;51.988;5.910;2023-03-01T00:50:16;5.18;;;3.70;;
47513;SDS011;33951;51.988;5.910;2023-03-01T00:52:42;4.80;;;3.20;;
47513;SDS011;33951;51.988;5.910;2023-03-01T00:55:09;4.57;;;3.42;;
47513;SDS011;33951;51.988;5.910;2023-03-01T00:57:35;9.18;;;4.45;;
47513;SDS011;33951;51.988;5.910;2023-03-01T01:00:01;5.93;;;4.25;;
47513;SDS011;33951;51.988;5.910;2023-03-01T05:15:02;10.35;;;5.88;;
47513;SDS011;33951;51.988;5.910;2023-03-01T05:17:32;7.60;;;5.18;;
47513;SDS011;33951;51.988;5.910;2023-03-01T05:20:00;8.15;;;4.93;;
47513;SDS011;33951;51.988;5.910;2023-03-01T05:22:26;11.02;;;5.13;;
47513;SDS011;33951;51.988;5.910;2023-03-01T05:24:54;9.05;;;5.20;;
47513;SDS011;33951;51.988;5.910;2023-03-01T05:27:20;7.88;;;5.38;;
47513;SDS011;33951;51.988;5.910;2023-03-01T05:29:47;8.27;;;5.22;;
47513;SDS011;33951;51.988;5.910;2023-03-01T05:32:13;7.80;;;4.30;;
47513;SDS011;33951;51.988;5.910;2023-03-01T05:34:42;6.55;;;4.68;;
47513;SDS011;33951;51.988;5.910;2023-03-01T05:37:09;7.75;;;4.82;;
47513;SDS011;33951;51.988;5.910;2023-03-01T05:39:34;9.43;;;5.13;;
47513;SDS011;33951;51.988;5.910;2023-03-01T05:42:03;7.65;;;5.18;;
47513;SDS011;33951;51.988;5.910;2023-03-01T05:44:28;8.95;;;5.30;;
47513;SDS011;33951;51.988;5.910;2023-03-01T05:46:55;8.23;;;4.95;;
47513;SDS011;33951;51.988;5.910;2023-03-01T05:49:21;9.95;;;5.82;;
47513;SDS011;33951;51.988;5.910;2023-03-01T05:51:49;7.55;;;5.22;;
47513;SDS011;33951;51.988;5.910;2023-03-01T05:54:16;9.13;;;5.38;;
47513;SDS011;33951;51.988;5.910;2023-03-01T05:56:43;8.77;;;5.80;;
47513;SDS011;33951;51.988;5.910;2023-03-01T05:59:09;8.77;;;4.88;;
47513;SDS011;33951;51.988;5.910;2023-03-01T06:01:36;10.10;;;5.95;;
47513;SDS011;33951;51.988;5.910;2023-03-01T06:04:02;12.25;;;5.20;;
47513;SDS011;33951;51.988;5.910;2023-03-01T06:06:29;9.45;;;5.40;;
47513;SDS011;33951;51.988;5.910;2023-03-01T06:08:58;8.15;;;5.72;;
47513;SDS011;33951;51.988;5.910;2023-03-01T06:11:23;7.72;;;5.82;;
47513;SDS011;33951;51.988;5.910;2023-03-01T06:13:49;10.63;;;5.88;;
47513;SDS011;33951;51.988;5.910;2023-03-01T06:16:15;11.88;;;5.90;;
47513;SDS011;33951;51.988;5.910;2023-03-01T06:18:41;8.80;;;5.05;;
47513;SDS011;33951;51.988;5.910;2023-03-01T06:21:07;9.63;;;5.60;;
47513;SDS011;33951;51.988;5.910;2023-03-01T06:23:33;8.10;;;5.45;;
47513;SDS011;33951;51.988;5.910;2023-03-01T06:25:59;8.45;;;5.53;;
47513;SDS011;33951;51.988;5.910;2023-03-01T06:28:25;11.55;;;5.97;;
47513;SDS011;33951;51.988;5.910;2023-03-01T06:30:51;10.10;;;6.22;;
47513;SDS011;33951;51.988;5.910;2023-03-01T06:33:17;8.73;;;5.63;;
47513;SDS011;33951;51.988;5.910;2023-03-01T06:35:45;8.82;;;5.50;;
47513;SDS011;33951;51.988;5.910;2023-03-01T06:38:11;8.65;;;5.65;;
47513;SDS011;33951;51.988;5.910;2023-03-01T06:40:40;8.75;;;5.68;;
47513;SDS011;33951;51.988;5.910;2023-03-01T06:43:05;11.45;;;5.22;;
47513;SDS011;33951;51.988;5.910;2023-03-01T06:45:32;10.70;;;6.90;;
47513;SDS011;33951;51.988;5.910;2023-03-01T06:48:05;13.18;;;6.63;;
47513;SDS011;33951;51.988;5.910;2023-03-01T06:50:31;9.60;;;6.22;;
47513;SDS011;33951;51.988;5.910;2023-03-01T06:52:57;10.70;;;5.90;;
47513;SDS011;33951;51.988;5.910;2023-03-01T06:55:23;10.55;;;6.07;;
47513;SDS011;33951;51.988;5.910;2023-03-01T06:57:53;9.43;;;6.40;;
47513;SDS011;33951;51.988;5.910;2023-03-01T07:00:23;13.40;;;7.18;;
47513;SDS011;33951;51.988;5.910;2023-03-01T07:02:50;12.77;;;7.88;;
47513;SDS011;33951;51.988;5.910;2023-03-01T07:05:16;14.55;;;8.90;;
47513;SDS011;33951;51.988;5.910;2023-03-01T07:07:41;13.00;;;9.38;;
47513;SDS011;33951;51.988;5.910;2023-03-01T07:10:07;12.30;;;8.05;;
47513;SDS011;33951;51.988;5.910;2023-03-01T07:12:33;13.68;;;7.85;;
47513;SDS011;33951;51.988;5.910;2023-03-01T07:14:59;13.30;;;8.10;;
47513;SDS011;33951;51.988;5.910;2023-03-01T07:17:25;10.60;;;6.28;;
47513;SDS011;33951;51.988;5.910;2023-03-01T07:19:50;11.43;;;6.82;;
47513;SDS011;33951;51.988;5.910;2023-03-01T07:22:16;12.98;;;6.88;;
47513;SDS011;33951;51.988;5.910;2023-03-01T07:24:42;9.73;;;6.45;;
47513;SDS011;33951;51.988;5.910;2023-03-01T07:27:08;10.55;;;6.82;;
47513;SDS011;33951;51.988;5.910;2023-03-01T07:29:34;8.98;;;5.75;;
47513;SDS011;33951;51.988;5.910;2023-03-01T07:32:01;10.55;;;6.05;;
47513;SDS011;33951;51.988;5.910;2023-03-01T07:34:28;12.15;;;5.93;;
47513;SDS011;33951;51.988;5.910;2023-03-01T07:36:53;9.20;;;6.03;;
47513;SDS011;33951;51.988;5.910;2023-03-01T07:39:19;10.13;;;5.55;;
47513;SDS011;33951;51.988;5.910;2023-03-01T07:41:47;11.45;;;6.72;;
47513;SDS011;33951;51.988;5.910;2023-03-01T07:44:13;9.43;;;5.85;;
47513;SDS011;33951;51.988;5.910;2023-03-01T07:46:41;13.25;;;6.57;;
47513;SDS011;33951;51.988;5.910;2023-03-01T07:49:07;15.00;;;6.72;;
47513;SDS011;33951;51.988;5.910;2023-03-01T07:51:35;11.35;;;6.60;;
47513;SDS011;33951;51.988;5.910;2023-03-01T07:54:04;13.18;;;6.78;;
47513;SDS011;33951;51.988;5.910;2023-03-01T07:56:32;9.40;;;6.50;;
47513;SDS011;33951;51.988;5.910;2023-03-01T07:58:58;11.65;;;6.68;;
47513;SDS011;33951;51.988;5.910;2023-03-01T08:01:33;10.63;;;6.90;;
47513;SDS011;33951;51.988;5.910;2023-03-01T08:03:59;10.73;;;6.40;;
47513;SDS011;33951;51.988;5.910;2023-03-01T08:06:35;9.18;;;5.82;;
47513;SDS011;33951;51.988;5.910;2023-03-01T08:09:06;9.20;;;6.05;;
47513;SDS011;33951;51.988;5.910;2023-03-01T08:11:40;8.15;;;5.32;;
47513;SDS011;33951;51.988;5.910;2023-03-01T08:14:06;10.90;;;6.00;;
47513;SDS011;33951;51.988;5.910;2023-03-01T08:16:31;10.70;;;6.35;;
47513;SDS011;33951;51.988;5.910;2023-03-01T08:19:07;8.00;;;5.65;;
47513;SDS011;33951;51.988;5.910;2023-03-01T08:21:35;11.25;;;6.20;;
47513;SDS011;33951;51.988;5.910;2023-03-01T08:24:04;10.40;;;6.32;;
47513;SDS011;33951;51.988;5.910;2023-03-01T08:26:31;9.60;;;6.07;;
47513;SDS011;33951;51.988;5.910;2023-03-01T08:28:57;9.02;;;5.50;;
47513;SDS011;33951;51.988;5.910;2023-03-01T08:31:30;10.00;;;6.35;;
47513;SDS011;33951;51.988;5.910;2023-03-01T08:34:01;7.55;;;5.57;;
47513;SDS011;33951;51.988;5.910;2023-03-01T08:36:32;7.90;;;5.75;;
47513;SDS011;33951;51.988;5.910;2023-03-01T08:39:04;11.57;;;5.50;;
47513;SDS011;33951;51.988;5.910;2023-03-01T08:41:36;9.32;;;5.82;;
47513;SDS011;33951;51.988;5.910;2023-03-01T08:44:02;13.70;;;5.88;;
47513;SDS011;33951;51.988;5.910;2023-03-01T08:46:39;9.35;;;5.50;;
47513;SDS011;33951;51.988;5.910;2023-03-01T08:49:11;9.10;;;4.78;;
47513;SDS011;33951;51.988;5.910;2023-03-01T08:51:39;8.82;;;5.57;;
47513;SDS011;33951;51.988;5.910;2023-03-01T08:54:06;10.00;;;4.85;;
47513;SDS011;33951;51.988;5.910;2023-03-01T08:56:39;9.57;;;5.28;;
47513;SDS011;33951;51.988;5.910;2023-03-01T08:59:07;8.60;;;5.00;;
47513;SDS011;33951;51.988;5.910;2023-03-01T09:01:37;8.60;;;5.05;;
47513;SDS011;33951;51.988;5.910;2023-03-01T09:04:08;9.88;;;4.95;;
47513;SDS011;33951;51.988;5.910;2023-03-01T09:06:45;6.75;;;4.93;;
47513;SDS011;33951;51.988;5.910;2023-03-01T09:09:14;8.85;;;5.28;;
47513;SDS011;33951;51.988;5.910;2023-03-01T09:11:52;7.72;;;4.43;;
47513;SDS011;33951;51.988;5.910;2023-03-01T09:14:18;8.73;;;4.25;;
47513;SDS011;33951;51.988;5.910;2023-03-01T09:16:46;8.05;;;4.57;;
47513;SDS011;33951;51.988;5.910;2023-03-01T09:19:12;7.80;;;5.25;;
47513;SDS011;33951;51.988;5.910;2023-03-01T09:21:39;9.30;;;4.60;;
47513;SDS011;33951;51.988;5.910;2023-03-01T09:24:05;6.50;;;3.85;;
47513;SDS011;33951;51.988;5.910;2023-03-01T09:26:35;9.13;;;4.70;;
47513;SDS011;33951;51.988;5.910;2023-03-01T09:29:03;9.32;;;5.47;;
47513;SDS011;33951;51.988;5.910;2023-03-01T09:31:46;7.85;;;4.57;;
47513;SDS011;33951;51.988;5.910;2023-03-01T09:34:28;8.55;;;5.07;;
47513;SDS011;33951;51.988;5.910;2023-03-01T09:36:59;9.27;;;5.90;;
47513;SDS011;33951;51.988;5.910;2023-03-01T09:39:25;7.70;;;5.20;;
47513;SDS011;33951;51.988;5.910;2023-03-01T09:41:57;9.43;;;6.18;;
47513;SDS011;33951;51.988;5.910;2023-03-01T09:44:46;11.65;;;5.88;;
47513;SDS011;33951;51.988;5.910;2023-03-01T09:47:19;10.27;;;6.80;;
47513;SDS011;33951;51.988;5.910;2023-03-01T09:50:03;10.70;;;6.32;;
47513;SDS011;33951;51.988;5.910;2023-03-01T09:55:26;9.65;;;6.72;;
47513;SDS011;33951;51.988;5.910;2023-03-01T10:01:20;10.88;;;7.30;;
47513;SDS011;33951;51.988;5.910;2023-03-01T10:09:59;11.83;;;8.60;;
47513;SDS011;33951;51.988;5.910;2023-03-01T10:12:34;11.45;;;8.85;;
47513;SDS011;33951;51.988;5.910;2023-03-01T10:17:46;11.82;;;6.13;;
47513;SDS011;33951;51.988;5.910;2023-03-01T10:20:25;9.85;;;5.82;;
47513;SDS011;33951;51.988;5.910;2023-03-01T10:23:02;8.23;;;5.72;;
47513;SDS011;33951;51.988;5.910;2023-03-01T10:28:34;10.18;;;6.90;;
47513;SDS011;33951;51.988;5.910;2023-03-01T10:31:22;9.18;;;6.38;;
47513;SDS011;33951;51.988;5.910;2023-03-01T10:34:04;10.88;;;6.10;;
47513;SDS011;33951;51.988;5.910;2023-03-01T10:36:55;9.87;;;6.10;;
47513;SDS011;33951;51.988;5.910;2023-03-01T10:39:23;6.43;;;4.55;;
47513;SDS011;33951;51.988;5.910;2023-03-01T10:47:22;6.07;;;4.90;;
47513;SDS011;33951;51.988;5.910;2023-03-01T10:52:33;7.93;;;5.07;;
47513;SDS011;33951;51.988;5.910;2023-03-01T10:55:23;7.78;;;5.70;;
47513;SDS011;33951;51.988;5.910;2023-03-01T11:00:55;7.93;;;4.40;;
47513;SDS011;33951;51.988;5.910;2023-03-01T11:06:01;8.45;;;4.90;;
47513;SDS011;33951;51.988;5.910;2023-03-01T11:08:31;9.07;;;5.47;;
47513;SDS011;33951;51.988;5.910;2023-03-01T11:13:56;7.43;;;4.63;;
47513;SDS011;33951;51.988;5.910;2023-03-01T12:39:24;11.07;;;5.07;;
47513;SDS011;33951;51.988;5.910;2023-03-01T12:42:28;9.13;;;5.05;;
47513;SDS011;33951;51.988;5.910;2023-03-01T12:50:54;8.32;;;5.45;;
47513;SDS011;33951;51.988;5.910;2023-03-01T12:55:57;8.05;;;4.95;;
47513;SDS011;33951;51.988;5.910;2023-03-01T13:01:25;12.30;;;6.32;;
47513;SDS011;33951;51.988;5.910;2023-03-01T13:07:15;13.25;;;5.05;;
47513;SDS011;33951;51.988;5.910;2023-03-01T13:10:17;6.13;;;4.25;;
47513;SDS011;33951;51.988;5.910;2023-03-01T13:15:29;6.82;;;4.28;;
47513;SDS011;33951;51.988;5.910;2023-03-01T13:17:57;6.45;;;4.47;;
47513;SDS011;33951;51.988;5.910;2023-03-01T13:23:12;7.05;;;5.07;;
47513;SDS011;33951;51.988;5.910;2023-03-01T13:33:51;6.95;;;4.65;;
47513;SDS011;33951;51.988;5.910;2023-03-01T13:38:58;8.55;;;4.90;;
47513;SDS011;33951;51.988;5.910;2023-03-01T13:49:37;8.75;;;4.85;;
47513;SDS011;33951;51.988;5.910;2023-03-01T13:57:48;3.80;;;3.40;;
47513;SDS011;33951;51.988;5.910;2023-03-01T14:05:58;6.40;;;4.70;;
47513;SDS011;33951;51.988;5.910;2023-03-01T14:08:31;7.45;;;4.43;;
47513;SDS011;33951;51.988;5.910;2023-03-01T14:19:24;8.27;;;4.90;;
47513;SDS011;33951;51.988;5.910;2023-03-01T14:24:44;5.70;;;4.25;;
47513;SDS011;33951;51.988;5.910;2023-03-01T14:27:14;11.13;;;7.05;;
47513;SDS011;33951;51.988;5.910;2023-03-01T14:29:43;8.55;;;5.57;;
47513;SDS011;33951;51.988;5.910;2023-03-01T14:32:10;10.15;;;6.88;;
47513;SDS011;33951;51.988;5.910;2023-03-01T14:34:43;8.90;;;5.95;;
47513;SDS011;33951;51.988;5.910;2023-03-01T14:37:21;14.65;;;5.40;;
47513;SDS011;33951;51.988;5.910;2023-03-01T14:39:50;7.57;;;5.55;;
47513;SDS011;33951;51.988;5.910;2023-03-01T14:42:16;6.95;;;4.70;;
47513;SDS011;33951;51.988;5.910;2023-03-01T14:44:44;6.63;;;5.07;;
47513;SDS011;33951;51.988;5.910;2023-03-01T14:47:14;6.90;;;4.82;;
47513;SDS011;33951;51.988;5.910;2023-03-01T14:49:44;7.40;;;4.75;;
47513;SDS011;33951;51.988;5.910;2023-03-01T14:52:20;6.63;;;5.28;;
47513;SDS011;33951;51.988;5.910;2023-03-01T14:54:48;9.75;;;5.13;;
47513;SDS011;33951;51.988;5.910;2023-03-01T14:57:17;6.00;;;4.28;;
47513;SDS011;33951;51.988;5.910;2023-03-01T14:59:46;8.70;;;4.78;;
47513;SDS011;33951;51.988;5.910;2023-03-01T15:02:18;5.13;;;4.07;;
47513;SDS011;33951;51.988;5.910;2023-03-01T15:04:50;7.50;;;4.38;;
47513;SDS011;33951;51.988;5.910;2023-03-01T15:07:27;6.78;;;4.35;;
47513;SDS011;33951;51.988;5.910;2023-03-01T15:09:59;7.60;;;4.45;;
47513;SDS011;33951;51.988;5.910;2023-03-01T15:14:57;7.28;;;4.10;;
47513;SDS011;33951;51.988;5.910;2023-03-01T15:17:33;9.80;;;5.40;;
47513;SDS011;33951;51.988;5.910;2023-03-01T15:20:02;6.95;;;4.93;;
47513;SDS011;33951;51.988;5.910;2023-03-01T15:22:40;6.20;;;4.10;;
47513;SDS011;33951;51.988;5.910;2023-03-01T15:25:21;6.93;;;4.47;;
47513;SDS011;33951;51.988;5.910;2023-03-01T15:27:50;5.53;;;4.10;;
47513;SDS011;33951;51.988;5.910;2023-03-01T15:30:23;5.47;;;4.35;;
47513;SDS011;33951;51.988;5.910;2023-03-01T15:33:19;7.78;;;4.25;;
47513;SDS011;33951;51.988;5.910;2023-03-01T15:35:57;6.32;;;4.10;;
47513;SDS011;33951;51.988;5.910;2023-03-01T15:38:32;5.53;;;4.35;;
47513;SDS011;33951;51.988;5.910;2023-03-01T15:43:58;6.18;;;3.83;;
47513;SDS011;33951;51.988;5.910;2023-03-01T17:04:11;6.50;;;4.13;;
47513;SDS011;33951;51.988;5.910;2023-03-01T17:06:37;6.65;;;4.53;;
47513;SDS011;33951;51.988;5.910;2023-03-01T17:09:02;7.60;;;4.95;;
47513;SDS011;33951;51.988;5.910;2023-03-01T17:11:28;8.93;;;5.70;;
47513;SDS011;33951;51.988;5.910;2023-03-01T17:13:54;7.85;;;5.15;;
47513;SDS011;33951;51.988;5.910;2023-03-01T17:16:20;7.75;;;5.07;;
47513;SDS011;33951;51.988;5.910;2023-03-01T17:18:48;5.45;;;4.10;;
47513;SDS011;33951;51.988;5.910;2023-03-01T17:21:14;10.18;;;5.47;;
47513;SDS011;33951;51.988;5.910;2023-03-01T17:23:41;8.35;;;5.68;;
47513;SDS011;33951;51.988;5.910;2023-03-01T17:26:08;9.23;;;5.05;;
47513;SDS011;33951;51.988;5.910;2023-03-01T17:28:34;5.97;;;4.15;;
47513;SDS011;33951;51.988;5.910;2023-03-01T17:31:02;25.77;;;13.70;;
47513;SDS011;33951;51.988;5.910;2023-03-01T17:33:29;26.13;;;12.35;;
47513;SDS011;33951;51.988;5.910;2023-03-01T17:35:55;27.38;;;14.07;;
47513;SDS011;33951;51.988;5.910;2023-03-01T17:38:22;15.70;;;7.65;;
47513;SDS011;33951;51.988;5.910;2023-03-01T17:40:48;9.15;;;4.65;;
47513;SDS011;33951;51.988;5.910;2023-03-01T17:43:14;6.93;;;4.05;;
47513;SDS011;33951;51.988;5.910;2023-03-01T17:45:41;9.07;;;5.00;;
47513;SDS011;33951;51.988;5.910;2023-03-01T17:48:11;6.75;;;4.43;;
47513;SDS011;33951;51.988;5.910;2023-03-01T17:50:37;8.23;;;5.35;;
47513;SDS011;33951;51.988;5.910;2023-03-01T17:53:06;9.18;;;5.97;;
47513;SDS011;33951;51.988;5.910;2023-03-01T17:55:40;12.18;;;6.30;;
47513;SDS011;33951;51.988;5.910;2023-03-01T17:58:07;9.23;;;6.10;;
47513;SDS011;33951;51.988;5.910;2023-03-01T18:00:34;6.45;;;4.82;;
47513;SDS011;33951;51.988;5.910;2023-03-01T18:03:01;6.45;;;4.70;;
47513;SDS011;33951;51.988;5.910;2023-03-01T18:05:30;11.43;;;5.95;;
47513;SDS011;33951;51.988;5.910;2023-03-01T18:07:57;9.27;;;4.90;;
47513;SDS011;33951;51.988;5.910;2023-03-01T18:10:23;8.80;;;5.07;;
47513;SDS011;33951;51.988;5.910;2023-03-01T18:12:58;8.38;;;5.60;;
47513;SDS011;33951;51.988;5.910;2023-03-01T18:15:24;7.47;;;5.15;;
47513;SDS011;33951;51.988;5.910;2023-03-01T18:17:49;11.38;;;5.88;;
47513;SDS011;33951;51.988;5.910;2023-03-01T18:20:15;7.95;;;6.03;;
47513;SDS011;33951;51.988;5.910;2023-03-01T18:22:41;10.77;;;5.65;;
47513;SDS011;33951;51.988;5.910;2023-03-01T18:25:09;10.13;;;5.03;;
47513;SDS011;33951;51.988;5.910;2023-03-01T18:27:35;8.10;;;5.55;;
47513;SDS011;33951;51.988;5.910;2023-03-01T18:30:01;7.30;;;5.07;;
47513;SDS011;33951;51.988;5.910;2023-03-01T18:32:30;8.82;;;5.18;;
47513;SDS011;33951;51.988;5.910;2023-03-01T18:34:55;6.30;;;4.63;;
47513;SDS011;33951;51.988;5.910;2023-03-01T18:37:21;9.43;;;6.13;;
47513;SDS011;33951;51.988;5.910;2023-03-01T18:39:49;10.43;;;5.97;;
47513;SDS011;33951;51.988;5.910;2023-03-01T18:42:16;8.68;;;5.68;;
47513;SDS011;33951;51.988;5.910;2023-03-01T18:44:44;8.05;;;4.75;;
47513;SDS011;33951;51.988;5.910;2023-03-01T18:47:16;7.22;;;4.93;;
47513;SDS011;33951;51.988;5.910;2023-03-01T18:49:48;8.60;;;5.40;;
47513;SDS011;33951;51.988;5.910;2023-03-01T18:52:14;6.88;;;5.13;;
47513;SDS011;33951;51.988;5.910;2023-03-01T18:54:39;7.22;;;4.75;;
47513;SDS011;33951;51.988;5.910;2023-03-01T18:57:05;8.32;;;5.47;;
47513;SDS011;33951;51.988;5.910;2023-03-01T18:59:30;8.20;;;5.57;;
47513;SDS011;33951;51.988;5.910;2023-03-01T19:01:56;9.05;;;5.13;;
47513;SDS011;33951;51.988;5.910;2023-03-01T19:04:22;9.40;;;6.18;;
47513;SDS011;33951;51.988;5.910;2023-03-01T19:06:47;9.57;;;5.53;;
47513;SDS011;33951;51.988;5.910;2023-03-01T19:09:13;8.68;;;5.97;;
47513;SDS011;33951;51.988;5.910;2023-03-01T19:11:39;10.40;;;5.60;;
47513;SDS011;33951;51.988;5.910;2023-03-01T19:14:05;9.40;;;5.47;;
47513;SDS011;33951;51.988;5.910;2023-03-01T19:16:31;9.65;;;5.32;;
47513;SDS011;33951;51.988;5.910;2023-03-01T19:18:59;9.80;;;5.97;;
47513;SDS011;33951;51.988;5.910;2023-03-01T19:21:26;9.55;;;5.90;;
47513;SDS011;33951;51.988;5.910;2023-03-01T19:23:57;10.32;;;6.07;;
47513;SDS011;33951;51.988;5.910;2023-03-01T19:26:33;12.18;;;7.95;;
47513;SDS011;33951;51.988;5.910;2023-03-01T19:28:59;13.88;;;7.40;;
47513;SDS011;33951;51.988;5.910;2023-03-01T19:34:31;9.82;;;5.90;;
47513;SDS011;33951;51.988;5.910;2023-03-01T19:39:48;10.35;;;5.85;;
47513;SDS011;33951;51.988;5.910;2023-03-01T19:42:20;15.30;;;7.68;;
47513;SDS011;33951;51.988;5.910;2023-03-01T19:44:50;12.60;;;7.28;;
47513;SDS011;33951;51.988;5.910;2023-03-01T19:47:16;11.07;;;7.25;;
47513;SDS011;33951;51.988;5.910;2023-03-01T19:49:50;16.95;;;10.18;;
47513;SDS011;33951;51.988;5.910;2023-03-01T19:52:15;14.38;;;8.25;;
47513;SDS011;33951;51.988;5.910;2023-03-01T19:54:41;12.32;;;8.20;;
47513;SDS011;33951;51.988;5.910;2023-03-01T19:57:23;12.87;;;7.63;;
47513;SDS011;33951;51.988;5.910;2023-03-01T19:59:48;11.60;;;6.72;;
47513;SDS011;33951;51.988;5.910;2023-03-01T20:02:17;10.45;;;6.07;;
47513;SDS011;33951;51.988;5.910;2023-03-01T20:04:43;12.13;;;6.95;;
47513;SDS011;33951;51.988;5.910;2023-03-01T20:07:11;14.60;;;6.97;;
47513;SDS011;33951;51.988;5.910;2023-03-01T20:09:44;11.75;;;7.82;;
47513;SDS011;33951;51.988;5.910;2023-03-01T20:12:12;11.93;;;6.15;;
47513;SDS011;33951;51.988;5.910;2023-03-01T20:14:38;13.32;;;7.85;;
47513;SDS011;33951;51.988;5.910;2023-03-01T20:20:12;10.68;;;5.85;;
47513;SDS011;33951;51.988;5.910;2023-03-01T20:22:38;8.75;;;5.38;;
47513;SDS011;33951;51.988;5.910;2023-03-01T20:25:07;8.95;;;5.60;;
47513;SDS011;33951;51.988;5.910;2023-03-01T20:27:36;10.43;;;5.25;;
47513;SDS011;33951;51.988;5.910;2023-03-01T20:30:02;7.60;;;4.88;;
47513;SDS011;33951;51.988;5.910;2023-03-01T20:32:31;9.77;;;5.43;;
47513;SDS011;33951;51.988;5.910;2023-03-01T20:35:05;5.72;;;3.97;;
47513;SDS011;33951;51.988;5.910;2023-03-01T20:37:31;7.68;;;4.85;;
47513;SDS011;33951;51.988;5.910;2023-03-01T20:39:57;15.15;;;7.80;;
47513;SDS011;33951;51.988;5.910;2023-03-01T20:42:25;15.98;;;7.55;;
47513;SDS011;33951;51.988;5.910;2023-03-01T20:44:50;9.75;;;5.30;;
47513;SDS011;33951;51.988;5.910;2023-03-01T20:47:16;7.25;;;4.70;;
47513;SDS011;33951;51.988;5.910;2023-03-01T20:49:44;8.85;;;5.43;;
47513;SDS011;33951;51.988;5.910;2023-03-01T20:52:09;11.30;;;6.53;;
47513;SDS011;33951;51.988;5.910;2023-03-01T20:54:35;7.38;;;4.70;;
47513;SDS011;33951;51.988;5.910;2023-03-01T20:57:01;19.55;;;9.65;;
47513;SDS011;33951;51.988;5.910;2023-03-01T20:59:27;10.52;;;5.90;;
47513;SDS011;33951;51.988;5.910;2023-03-01T21:01:52;8.75;;;5.35;;
47513;SDS011;33951;51.988;5.910;2023-03-01T21:04:18;8.93;;;5.40;;
47513;SDS011;33951;51.988;5.910;2023-03-01T21:06:47;9.98;;;5.55;;
47513;SDS011;33951;51.988;5.910;2023-03-01T21:09:12;8.40;;;5.78;;
47513;SDS011;33951;51.988;5.910;2023-03-01T21:11:38;13.25;;;7.22;;
47513;SDS011;33951;51.988;5.910;2023-03-01T21:14:03;8.88;;;6.35;;
47513;SDS011;33951;51.988;5.910;2023-03-01T21:16:36;14.10;;;7.72;;
47513;SDS011;33951;51.988;5.910;2023-03-01T21:19:02;16.42;;;7.07;;
47513;SDS011;33951;51.988;5.910;2023-03-01T21:21:30;13.27;;;7.28;;
47513;SDS011;33951;51.988;5.910;2023-03-01T21:23:56;10.70;;;6.57;;
47513;SDS011;33951;51.988;5.910;2023-03-01T21:26:25;8.85;;;5.65;;
47513;SDS011;33951;51.988;5.910;2023-03-01T21:28:58;8.73;;;6.50;;
47513;SDS011;33951;51.988;5.910;2023-03-01T21:31:31;8.50;;;5.20;;
47513;SDS011;33951;51.988;5.910;2023-03-01T21:33:59;8.45;;;5.22;;
47513;SDS011;33951;51.988;5.910;2023-03-01T21:36:28;11.25;;;5.82;;
47513;SDS011;33951;51.988;5.910;2023-03-01T21:38:54;13.00;;;5.82;;
47513;SDS011;33951;51.988;5.910;2023-03-01T21:41:21;8.27;;;5.30;;
47513;SDS011;33951;51.988;5.910;2023-03-01T21:43:55;8.35;;;4.95;;
47513;SDS011;33951;51.988;5.910;2023-03-01T21:46:24;9.15;;;5.15;;
47513;SDS011;33951;51.988;5.910;2023-03-01T21:48:51;9.18;;;5.72;;
47513;SDS011;33951;51.988;5.910;2023-03-01T21:51:19;8.45;;;5.50;;
47513;SDS011;33951;51.988;5.910;2023-03-01T21:53:47;7.75;;;5.40;;
47513;SDS011;33951;51.988;5.910;2023-03-01T21:56:19;8.20;;;5.03;;
47513;SDS011;33951;51.988;5.910;2023-03-01T21:58:47;7.25;;;5.18;;
47513;SDS011;33951;51.988;5.910;2023-03-01T22:01:14;10.75;;;5.00;;
47513;SDS011;33951;51.988;5.910;2023-03-01T22:03:43;6.00;;;4.30;;
47513;SDS011;33951;51.988;5.910;2023-03-01T22:06:15;10.38;;;5.35;;
47513;SDS011;33951;51.988;5.910;2023-03-01T22:08:57;9.57;;;4.95;;
47513;SDS011;33951;51.988;5.910;2023-03-01T22:11:30;11.68;;;5.28;;
47513;SDS011;33951;51.988;5.910;2023-03-01T22:13:58;9.88;;;5.80;;
47513;SDS011;33951;51.988;5.910;2023-03-01T22:16:24;11.02;;;5.70;;
47513;SDS011;33951;51.988;5.910;2023-03-01T22:18:53;9.90;;;5.40;;
47513;SDS011;33951;51.988;5.910;2023-03-01T22:21:20;13.60;;;6.05;;
47513;SDS011;33951;51.988;5.910;2023-03-01T22:23:47;11.50;;;6.25;;
47513;SDS011;33951;51.988;5.910;2023-03-01T22:29:07;10.90;;;5.70;;
47513;SDS011;33951;51.988;5.910;2023-03-01T22:31:35;10.80;;;6.22;;
47513;SDS011;33951;51.988;5.910;2023-03-01T22:34:01;11.00;;;6.47;;
47513;SDS011;33951;51.988;5.910;2023-03-01T22:36:27;9.82;;;6.50;;
47513;SDS011;33951;51.988;5.910;2023-03-01T22:38:53;12.45;;;6.85;;
47513;SDS011;33951;51.988;5.910;2023-03-01T22:41:29;12.25;;;6.70;;
47513;SDS011;33951;51.988;5.910;2023-03-01T22:43:58;10.57;;;6.90;;
47513;SDS011;33951;51.988;5.910;2023-03-01T22:46:25;10.35;;;6.75;;
47513;SDS011;33951;51.988;5.910;2023-03-01T22:48:51;15.00;;;8.13;;
47513;SDS011;33951;51.988;5.910;2023-03-01T22:51:24;11.90;;;7.95;;
47513;SDS011;33951;51.988;5.910;2023-03-01T22:53:52;15.25;;;8.88;;
47513;SDS011;33951;51.988;5.910;2023-03-01T22:56:20;15.68;;;9.27;;
47513;SDS011;33951;51.988;5.910;2023-03-01T22:58:47;17.20;;;9.43;;
47513;SDS011;33951;51.988;5.910;2023-03-01T23:01:14;14.60;;;9.55;;
